Terminal Aerodrome Forecast
Issued by NWS

Home | Current Version | Previous Version | Text Only | Print | Product List | Glossary On
Versions: 1 2 3 4 5 6 7 8 9 10 11 12 13 14 15 16 17 18 19
000
FTUS43 KDLH 252200 AAB
TAFHYR
TAF AMD
KHYR 252204Z 2522/2618 04015G24KT P6SM SKC
     FM260000 05011KT P6SM SKC
     FM260300 04005KT P6SM SKC=

USA.gov is the U.S. government's official web portal to all federal, state and local government web resources and services.